createdAt,value
2023-04-02T00:01:02.618Z,97960.91
2023-04-02T00:02:22.863Z,97958.94
2023-04-02T00:03:24.656Z,97958.00
2023-04-02T00:04:26.584Z,97954.03
2023-04-02T00:05:50.188Z,97954.47
2023-04-02T00:07:16.703Z,97967.78
2023-04-02T00:08:29.577Z,97969.41
2023-04-02T00:09:36.069Z,97966.78
2023-04-02T00:10:46.769Z,97962.75
2023-04-02T00:11:54.857Z,97952.88
2023-04-02T00:13:22.315Z,97968.97
2023-04-02T00:14:33.627Z,97966.56
2023-04-02T00:15:36.091Z,97967.66
2023-04-02T00:16:38.274Z,97973.94
2023-04-02T00:17:40.024Z,97975.34
2023-04-02T00:18:46.713Z,97982.22
2023-04-02T00:19:54.722Z,97976.28
2023-04-02T00:21:08.271Z,97969.25
2023-04-02T00:22:17.003Z,97980.88
2023-04-02T00:23:19.753Z,97970.22
2023-04-02T00:24:22.421Z,97975.59
2023-04-02T00:25:28.395Z,97977.22
2023-04-02T00:26:40.174Z,97990.53
2023-04-02T00:27:42.317Z,97979.41
2023-04-02T00:28:43.992Z,97975.53
2023-04-02T00:29:51.627Z,97985.97
2023-04-02T00:30:56.428Z,97985.75
2023-04-02T00:32:00.062Z,97968.06
2023-04-02T00:33:01.947Z,97982.31
2023-04-02T00:34:04.973Z,97982.31
2023-04-02T00:35:23.136Z,97973.25
2023-04-02T00:36:30.234Z,97977.25
2023-04-02T00:37:39.486Z,97972.56
2023-04-02T00:38:44.302Z,97969.59
2023-04-02T00:39:46.598Z,97963.63
2023-04-02T00:40:51.289Z,97967.88
2023-04-02T00:42:07.082Z,97970.16
2023-04-02T00:43:09.219Z,97971.19
2023-04-02T00:44:22.167Z,97963.28
2023-04-02T00:45:33.404Z,97964.22
2023-04-02T00:46:47.400Z,97968.09
2023-04-02T00:47:50.064Z,97954.81
2023-04-02T00:49:05.821Z,97962.81
2023-04-02T00:50:14.703Z,97959.16
2023-04-02T00:51:23.896Z,97954.69
2023-04-02T00:52:29.544Z,97963.41
2023-04-02T00:53:32.201Z,97961.56
2023-04-02T00:54:41.824Z,97967.66
2023-04-02T00:55:44.302Z,97957.47
2023-04-02T00:56:48.420Z,97962.75
2023-04-02T00:57:51.565Z,97963.19
2023-04-02T00:58:55.790Z,97965.25
2023-04-02T01:00:12.160Z,97959.16
2023-04-02T01:01:19.788Z,97967.28
2023-04-02T01:02:31.120Z,97964.66
2023-04-02T01:03:36.502Z,97964.66
2023-04-02T01:04:38.976Z,97966.47
2023-04-02T01:05:42.629Z,97973.38
2023-04-02T01:06:46.109Z,97974.75
2023-04-02T01:07:56.453Z,97972.94
2023-04-02T01:09:37.693Z,97985.09
2023-04-02T01:11:02.140Z,97971.91
2023-04-02T01:12:24.912Z,97983.03
2023-04-02T01:13:36.880Z,97981.19
2023-04-02T01:15:03.921Z,97996.81
2023-04-02T01:16:39.127Z,97975.78
2023-04-02T01:18:06.510Z,97979.16
2023-04-02T01:19:35.862Z,97995.31
2023-04-02T01:20:37.971Z,97995.31
2023-04-02T01:22:09.675Z,97991.63
2023-04-02T01:23:26.474Z,97987.97
2023-04-02T01:24:34.245Z,97973.28
2023-04-02T01:25:38.656Z,97989.00
2023-04-02T01:27:01.278Z,97989.22
2023-04-02T01:28:19.762Z,97976.25
2023-04-02T01:29:31.837Z,97979.69
2023-04-02T01:30:36.716Z,97984.31
2023-04-02T01:31:39.534Z,97987.53
2023-04-02T01:32:43.252Z,97975.94
2023-04-02T01:33:45.137Z,97987.31
2023-04-02T01:34:48.097Z,97980.06
2023-04-02T01:36:07.051Z,97995.59
2023-04-02T01:37:14.698Z,97994.53
2023-04-02T01:38:25.980Z,97994.09
2023-04-02T01:39:34.152Z,97999.34
2023-04-02T01:40:45.766Z,97992.88
2023-04-02T01:42:10.792Z,98000.56
2023-04-02T01:43:24.655Z,97996.09
2023-04-02T01:44:41.969Z,97993.22
2023-04-02T01:45:44.481Z,97993.66
2023-04-02T01:46:48.972Z,97990.44
2023-04-02T01:47:51.755Z,97983.97
2023-04-02T01:48:55.101Z,97978.81
2023-04-02T01:50:14.831Z,97993.28
2023-04-02T01:51:29.074Z,97999.97
2023-04-02T01:52:41.239Z,97989.84
2023-04-02T01:53:42.974Z,97992.88
2023-04-02T01:54:47.356Z,97999.34
2023-04-02T01:56:00.419Z,97994.53
2023-04-02T01:57:02.407Z,97989.13
2023-04-02T01:58:04.846Z,98004.06
2023-04-02T01:59:07.266Z,98002.00
2023-04-02T02:00:14.768Z,97996.13
2023-04-02T02:01:20.915Z,98003.72
2023-04-02T02:02:22.818Z,97992.22
2023-04-02T02:03:24.787Z,97998.22
2023-04-02T02:04:26.969Z,98002.31
2023-04-02T02:05:29.620Z,97997.50
2023-04-02T02:06:31.770Z,97997.63
2023-04-02T02:07:33.565Z,97987.09
2023-04-02T02:08:59.650Z,97987.88
2023-04-02T02:10:01.703Z,97989.94
2023-04-02T02:11:04.212Z,97986.50
2023-04-02T02:12:06.802Z,97993.03
2023-04-02T02:13:14.920Z,97993.84
2023-04-02T02:14:23.931Z,97993.38
2023-04-02T02:15:26.218Z,97981.53
2023-04-02T02:16:30.219Z,97991.56
2023-04-02T02:17:34.738Z,97982.84
2023-04-02T02:18:37.077Z,97986.63
2023-04-02T02:19:43.804Z,97991.09
2023-04-02T02:20:46.485Z,97983.75
2023-04-02T02:22:04.744Z,97975.50
2023-04-02T02:23:07.394Z,97988.00
2023-04-02T02:24:22.432Z,97980.91
2023-04-02T02:25:34.034Z,97976.31
2023-04-02T02:26:36.854Z,97980.31
2023-04-02T02:27:53.794Z,97982.41
2023-04-02T02:28:57.972Z,97986.88
2023-04-02T02:30:09.912Z,97979.19
2023-04-02T02:31:19.742Z,97983.66
2023-04-02T02:32:25.679Z,97982.84
2023-04-02T02:33:37.103Z,97975.94
2023-04-02T02:34:43.594Z,97981.09
2023-04-02T02:35:56.825Z,97974.19
2023-04-02T02:37:17.898Z,97975.59
2023-04-02T02:38:34.546Z,97971.69
2023-04-02T02:39:50.472Z,97972.94
2023-04-02T02:40:57.058Z,97961.81
2023-04-02T02:42:10.285Z,97968.94
2023-04-02T02:43:14.622Z,97976.63
2023-04-02T02:44:22.601Z,97963.00
2023-04-02T02:45:31.454Z,97957.94
2023-04-02T02:46:36.005Z,97968.63
2023-04-02T02:47:40.123Z,97957.28
2023-04-02T02:48:44.215Z,97968.16
2023-04-02T02:49:52.894Z,97960.50
2023-04-02T02:50:56.468Z,97956.47
2023-04-02T02:52:18.900Z,97945.19
2023-04-02T02:53:23.974Z,97954.41
2023-04-02T02:54:27.819Z,97963.34
2023-04-02T02:55:38.114Z,97957.94
2023-04-02T02:56:46.946Z,97955.22
2023-04-02T02:58:10.404Z,97955.75
2023-04-02T02:59:15.261Z,97955.53
2023-04-02T03:00:19.640Z,97967.69
2023-04-02T03:01:21.775Z,97962.44
2023-04-02T03:02:26.547Z,97966.72
2023-04-02T03:03:32.768Z,97965.22
2023-04-02T03:04:36.682Z,97959.50
2023-04-02T03:05:40.490Z,97957.31
2023-04-02T03:06:42.545Z,97967.41
2023-04-02T03:07:44.461Z,97949.47
2023-04-02T03:08:54.041Z,97969.59
2023-04-02T03:10:15.316Z,97961.66
2023-04-02T03:11:16.943Z,97970.75
2023-04-02T03:12:37.111Z,97968.69
2023-04-02T03:13:47.410Z,97970.31
2023-04-02T03:14:58.690Z,97972.34
2023-04-02T03:16:19.447Z,97963.63
2023-04-02T03:17:45.073Z,97960.63
2023-04-02T03:18:56.932Z,97963.41
2023-04-02T03:20:30.619Z,97948.59
2023-04-02T03:21:46.169Z,97965.81
2023-04-02T03:22:58.661Z,97967.44
2023-04-02T03:24:32.629Z,97964.09
2023-04-02T03:25:46.737Z,97962.25
2023-04-02T03:26:59.122Z,97965.25
2023-04-02T03:28:06.799Z,97968.03
2023-04-02T03:29:18.532Z,97965.94
2023-04-02T03:30:42.231Z,97967.09
2023-04-02T03:32:24.394Z,97962.97
2023-04-02T03:33:50.438Z,97965.72
2023-04-02T03:34:57.301Z,97968.69
2023-04-02T03:36:19.017Z,97964.81
2023-04-02T03:37:34.564Z,97971.25
2023-04-02T03:38:43.760Z,97974.66
2023-04-02T03:40:08.968Z,97978.44
2023-04-02T03:41:27.239Z,97980.53
2023-04-02T03:42:49.272Z,97980.19
2023-04-02T03:44:02.182Z,97994.28
2023-04-02T03:45:07.963Z,97986.59
2023-04-02T03:46:22.583Z,97996.63
2023-04-02T03:47:30.881Z,98000.59
2023-04-02T03:48:46.157Z,97987.97
2023-04-02T03:49:59.973Z,97993.59
2023-04-02T03:51:11.543Z,97982.91
2023-04-02T03:52:39.802Z,97987.06
2023-04-02T03:53:44.577Z,97994.28
2023-04-02T03:54:53.233Z,97991.88
2023-04-02T03:55:57.481Z,97989.81
2023-04-02T03:57:00.769Z,97981.22
2023-04-02T03:58:14.374Z,97992.78
2023-04-02T03:59:28.587Z,97985.66
2023-04-02T04:00:39.274Z,97987.94
2023-04-02T04:01:55.374Z,97979.44
2023-04-02T04:03:03.304Z,97982.78
2023-04-02T04:04:18.165Z,97980.94
2023-04-02T04:05:51.910Z,97987.94
2023-04-02T04:06:56.808Z,97978.19
2023-04-02T04:08:03.638Z,97986.34
2023-04-02T04:09:17.262Z,97981.63
2023-04-02T04:10:24.506Z,97978.53
2023-04-02T04:11:31.913Z,97979.69
2023-04-02T04:12:40.051Z,97991.28
2023-04-02T04:14:10.225Z,97982.91
2023-04-02T04:15:20.026Z,97983.44
2023-04-02T04:16:42.145Z,97984.25
2023-04-02T04:18:02.243Z,97987.69
2023-04-02T04:19:19.640Z,97984.00
2023-04-02T04:20:26.174Z,97990.44
2023-04-02T04:21:37.768Z,97973.00
2023-04-02T04:22:40.989Z,97993.09
2023-04-02T04:23:50.539Z,97979.34
2023-04-02T04:24:53.309Z,97993.91
2023-04-02T04:26:09.922Z,97998.59
2023-04-02T04:27:33.937Z,97974.03
2023-04-02T04:28:58.609Z,98014.66
2023-04-02T04:30:06.683Z,98015.47
2023-04-02T04:31:23.871Z,98011.22
2023-04-02T04:32:58.464Z,98019.16
2023-04-02T04:34:09.278Z,98016.84
2023-04-02T04:35:22.896Z,98020.66
2023-04-02T04:36:32.853Z,98017.19
2023-04-02T04:37:41.527Z,98023.06
2023-04-02T04:38:55.313Z,98021.19
2023-04-02T04:40:11.411Z,98015.59
2023-04-02T04:41:16.694Z,98020.41
2023-04-02T04:42:27.387Z,98009.84
2023-04-02T04:43:46.930Z,98012.81
2023-04-02T04:45:03.870Z,98024.66
2023-04-02T04:46:27.549Z,98016.88
2023-04-02T04:47:37.383Z,98013.66
2023-04-02T04:49:02.416Z,98015.84
2023-04-02T04:50:12.243Z,98016.88
2023-04-02T04:51:22.270Z,98021.81
2023-04-02T04:52:25.980Z,98022.63
2023-04-02T04:53:29.531Z,98019.88
2023-04-02T04:54:31.468Z,98012.09
2023-04-02T04:55:45.478Z,98016.91
2023-04-02T04:56:50.450Z,98020.59
2023-04-02T04:58:01.036Z,98021.84
2023-04-02T04:59:11.885Z,98020.81
2023-04-02T05:00:29.020Z,98023.91
2023-04-02T05:01:42.152Z,98011.88
2023-04-02T05:03:17.287Z,98031.25
2023-04-02T05:04:34.210Z,98023.56
2023-04-02T05:05:39.446Z,98031.75
2023-04-02T05:06:49.614Z,98008.44
2023-04-02T05:07:57.920Z,98037.03
2023-04-02T05:09:13.937Z,98034.94
2023-04-02T05:10:32.505Z,98026.56
2023-04-02T05:12:07.042Z,98044.59
2023-04-02T05:13:20.946Z,98044.38
2023-04-02T05:14:40.637Z,98043.13
2023-04-02T05:15:51.497Z,98035.41
2023-04-02T05:17:01.369Z,98039.53
2023-04-02T05:18:15.001Z,98038.06
2023-04-02T05:19:16.631Z,98045.03
2023-04-02T05:20:25.760Z,98034.25
2023-04-02T05:21:38.723Z,98030.78
2023-04-02T05:22:56.330Z,98031.81
2023-04-02T05:24:16.449Z,98043.56
2023-04-02T05:25:26.410Z,98045.97
2023-04-02T05:26:37.494Z,98037.59
2023-04-02T05:27:52.854Z,98028.97
2023-04-02T05:29:06.692Z,98037.69
2023-04-02T05:30:23.492Z,98041.72
2023-04-02T05:31:37.989Z,98043.44
2023-04-02T05:32:56.510Z,98038.50
2023-04-02T05:33:58.384Z,98036.88
2023-04-02T05:35:00.498Z,98040.66
2023-04-02T05:36:18.463Z,98028.03
2023-04-02T05:37:23.264Z,98042.03
2023-04-02T05:38:32.323Z,98039.22
2023-04-02T05:39:34.094Z,98044.97
2023-04-02T05:40:43.030Z,98047.00
2023-04-02T05:41:47.627Z,98054.38
2023-04-02T05:42:52.994Z,98044.34
2023-04-02T05:44:03.794Z,98047.19
2023-04-02T05:45:20.691Z,98053.47
2023-04-02T05:46:28.342Z,98051.44
2023-04-02T05:47:33.470Z,98051.44
2023-04-02T05:48:38.550Z,98049.81
2023-04-02T05:49:44.689Z,98047.38
2023-04-02T05:50:53.726Z,98038.06
2023-04-02T05:51:59.545Z,98034.84
2023-04-02T05:53:16.215Z,98048.44
2023-04-02T05:54:26.246Z,98051.03
2023-04-02T05:55:57.821Z,98047.09
2023-04-02T05:57:09.345Z,98047.78
2023-04-02T05:59:34.244Z,98060.28
2023-04-02T06:00:39.601Z,98061.19
2023-04-02T06:01:47.420Z,98065.28
2023-04-02T06:03:00.091Z,98056.59
2023-04-02T06:04:31.132Z,98066.63
2023-04-02T06:05:40.207Z,98057.22
2023-04-02T06:06:42.682Z,98058.91
2023-04-02T06:08:03.502Z,98071.22
2023-04-02T06:09:33.150Z,98059.88
2023-04-02T06:10:46.620Z,98069.13
2023-04-02T06:11:56.868Z,98066.78
2023-04-02T06:13:03.554Z,98074.31
2023-04-02T06:14:11.632Z,98075.50
2023-04-02T06:15:18.089Z,98075.59
2023-04-02T06:16:28.586Z,98072.41
2023-04-02T06:17:33.774Z,98060.75
2023-04-02T06:18:36.938Z,98062.09
2023-04-02T06:19:39.836Z,98062.69
2023-04-02T06:20:41.900Z,98072.56
2023-04-02T06:21:45.548Z,98060.88
2023-04-02T06:22:56.891Z,98069.41
2023-04-02T06:24:04.494Z,98061.94
2023-04-02T06:25:18.930Z,98065.13
2023-04-02T06:26:41.577Z,98076.31
2023-04-02T06:27:45.667Z,98073.91
2023-04-02T06:28:52.310Z,98078.72
2023-04-02T06:30:01.207Z,98085.41
2023-04-02T06:31:12.071Z,98085.41
2023-04-02T06:32:13.818Z,98093.91
2023-04-02T06:33:16.075Z,98088.34
2023-04-02T06:34:21.164Z,98097.66
2023-04-02T06:35:23.612Z,98096.03
2023-04-02T06:36:27.817Z,98099.75
2023-04-02T06:37:34.919Z,98092.00
2023-04-02T06:38:38.163Z,98097.59
2023-04-02T06:39:39.856Z,98088.00
2023-04-02T06:40:46.739Z,98089.56
2023-04-02T06:42:15.205Z,98089.84
2023-04-02T06:43:27.077Z,98091.16
2023-04-02T06:44:33.503Z,98098.66
2023-04-02T06:45:41.506Z,98083.69
2023-04-02T06:47:06.029Z,98097.53
2023-04-02T06:48:15.620Z,98093.75
2023-04-02T06:49:29.753Z,98102.56
2023-04-02T06:50:49.776Z,98107.88
2023-04-02T06:51:54.741Z,98107.63
2023-04-02T06:53:00.141Z,98112.94
2023-04-02T06:54:04.475Z,98113.78
2023-04-02T06:55:29.235Z,98109.50
2023-04-02T06:56:43.434Z,98108.72
2023-04-02T06:57:45.111Z,98109.47
2023-04-02T06:58:46.955Z,98103.91
2023-04-02T06:59:48.796Z,98105.75
2023-04-02T07:00:51.213Z,98110.53
2023-04-02T07:02:04.196Z,98111.56
2023-04-02T07:03:13.711Z,98113.44
2023-04-02T07:04:15.983Z,98107.59
2023-04-02T07:05:17.750Z,98106.50
2023-04-02T07:06:21.282Z,98104.91
2023-04-02T07:07:22.982Z,98096.13
2023-04-02T07:08:24.788Z,98109.16
2023-04-02T07:09:26.864Z,98111.56
2023-04-02T07:10:34.232Z,98113.41
2023-04-02T07:11:36.397Z,98112.31
2023-04-02T07:12:38.481Z,98118.13
2023-04-02T07:13:40.169Z,98118.44
2023-04-02T07:14:41.892Z,98121.91
2023-04-02T07:15:47.061Z,98111.22
2023-04-02T07:16:48.956Z,98118.19
2023-04-02T07:17:52.325Z,98122.72
2023-04-02T07:18:56.098Z,98115.50
2023-04-02T07:19:57.801Z,98122.19
2023-04-02T07:20:59.889Z,98121.41
2023-04-02T07:22:01.609Z,98129.88
2023-04-02T07:23:04.066Z,98125.38
2023-04-02T07:24:06.292Z,98129.13
2023-04-02T07:25:08.295Z,98137.34
2023-04-02T07:26:15.665Z,98135.75
2023-04-02T07:27:20.342Z,98139.47
2023-04-02T07:28:23.103Z,98125.91
2023-04-02T07:29:24.922Z,98139.25
2023-04-02T07:30:26.618Z,98129.91
2023-04-02T07:31:28.977Z,98140.59
2023-04-02T07:32:30.974Z,98134.19
2023-04-02T07:33:32.694Z,98137.13
2023-04-02T07:34:34.400Z,98140.06
2023-04-02T07:35:37.584Z,98141.63
2023-04-02T07:36:39.614Z,98144.59
2023-04-02T07:37:41.316Z,98133.94
2023-04-02T07:38:43.537Z,98139.25
2023-04-02T07:39:45.290Z,98137.66
2023-04-02T07:40:47.363Z,98137.72
2023-04-02T07:42:02.810Z,98132.66
2023-04-02T07:43:06.015Z,98134.03
2023-04-02T07:44:07.716Z,98134.34
2023-04-02T07:45:09.937Z,98129.81
2023-04-02T07:46:15.376Z,98134.94
2023-04-02T07:47:17.227Z,98124.31
2023-04-02T07:48:18.948Z,98116.31
2023-04-02T07:49:21.593Z,98115.78
2023-04-02T07:50:23.621Z,98126.16
2023-04-02T07:51:26.729Z,98120.00
2023-04-02T07:52:31.466Z,98118.13
2023-04-02T07:53:40.500Z,98126.88
2023-04-02T07:54:42.188Z,98118.53
2023-04-02T07:55:43.888Z,98114.72
2023-04-02T07:56:45.643Z,98120.84
2023-04-02T07:57:52.873Z,98119.16
2023-04-02T07:58:54.892Z,98119.63
2023-04-02T07:59:57.221Z,98121.09
2023-04-02T08:01:00.768Z,98117.03
2023-04-02T08:02:03.001Z,98116.53
2023-04-02T08:03:05.207Z,98116.69
2023-04-02T08:04:08.121Z,98114.72
2023-04-02T08:05:10.699Z,98116.50
2023-04-02T08:06:12.763Z,98116.41
2023-04-02T08:07:14.585Z,98105.47
2023-04-02T08:08:16.307Z,98113.34
2023-04-02T08:09:18.040Z,98124.72
2023-04-02T08:10:19.940Z,98119.38
2023-04-02T08:11:21.757Z,98106.94
2023-04-02T08:12:23.473Z,98106.63
2023-04-02T08:13:25.264Z,98103.44
2023-04-02T08:14:26.990Z,98116.91
2023-04-02T08:15:28.710Z,98114.81
2023-04-02T08:16:44.998Z,98114.19
2023-04-02T08:17:48.108Z,98118.25
2023-04-02T08:18:49.902Z,98105.91
2023-04-02T08:19:55.045Z,98114.97
2023-04-02T08:20:57.604Z,98108.91
2023-04-02T08:21:59.302Z,98110.94
2023-04-02T08:23:01.259Z,98107.59
2023-04-02T08:24:04.405Z,98107.97
2023-04-02T08:25:06.627Z,98112.66
2023-04-02T08:26:08.779Z,98113.34
2023-04-02T08:27:15.280Z,98114.06
2023-04-02T08:28:17.535Z,98105.09
2023-04-02T08:29:19.815Z,98112.66
2023-04-02T08:30:21.761Z,98111.72
2023-04-02T08:31:23.743Z,98109.75
2023-04-02T08:32:26.625Z,98112.72
2023-04-02T08:33:28.409Z,98108.66
2023-04-02T08:34:30.124Z,98111.53
2023-04-02T08:35:31.908Z,98110.00
2023-04-02T08:36:36.560Z,98113.88
2023-04-02T08:37:38.418Z,98106.69
2023-04-02T08:38:40.126Z,98112.28
2023-04-02T08:39:41.889Z,98112.00
2023-04-02T08:40:47.740Z,98107.63
2023-04-02T08:42:00.565Z,98115.19
2023-04-02T08:43:33.133Z,98109.94
2023-04-02T08:44:40.629Z,98116.16
2023-04-02T08:45:54.749Z,98119.41
2023-04-02T08:47:04.545Z,98107.56
2023-04-02T08:48:10.109Z,98096.81
2023-04-02T08:49:18.295Z,98106.00
2023-04-02T08:50:33.144Z,98106.25
2023-04-02T08:51:36.923Z,98110.53
2023-04-02T08:52:39.248Z,98115.97
2023-04-02T08:53:42.325Z,98099.84
2023-04-02T08:54:44.025Z,98103.50
2023-04-02T08:56:06.067Z,98102.41
2023-04-02T08:57:21.998Z,98106.69
2023-04-02T08:58:45.099Z,98098.56
2023-04-02T08:59:48.049Z,98099.94
2023-04-02T09:00:54.565Z,98100.41
2023-04-02T09:01:56.364Z,98097.88
2023-04-02T09:03:02.720Z,98092.03
2023-04-02T09:04:14.640Z,98096.44
2023-04-02T09:05:26.752Z,98090.25
2023-04-02T09:06:29.309Z,98090.69
2023-04-02T09:07:33.180Z,98085.91
2023-04-02T09:08:35.596Z,98095.63
2023-04-02T09:09:38.520Z,98089.63
2023-04-02T09:10:45.072Z,98095.66
2023-04-02T09:12:04.372Z,98094.84
2023-04-02T09:13:18.483Z,98079.81
2023-04-02T09:14:43.606Z,98092.25
2023-04-02T09:15:45.786Z,98087.19
2023-04-02T09:16:52.723Z,98088.13
2023-04-02T09:18:18.965Z,98077.19
2023-04-02T09:19:35.616Z,98087.97
2023-04-02T09:20:37.699Z,98081.78
2023-04-02T09:21:46.989Z,98083.50
2023-04-02T09:22:51.942Z,98076.06
2023-04-02T09:23:54.226Z,98076.38
2023-04-02T09:25:01.270Z,98068.44
2023-04-02T09:26:04.476Z,98075.56
2023-04-02T09:27:21.776Z,98078.00
2023-04-02T09:28:26.544Z,98073.03
2023-04-02T09:29:28.179Z,98081.94
2023-04-02T09:30:30.036Z,98074.03
2023-04-02T09:31:39.379Z,98070.34
2023-04-02T09:32:49.266Z,98073.50
2023-04-02T09:33:54.796Z,98080.44
2023-04-02T09:35:26.261Z,98076.19
2023-04-02T09:36:40.078Z,98070.75
2023-04-02T09:37:43.717Z,98070.44
2023-04-02T09:39:15.854Z,98074.97
2023-04-02T09:40:26.273Z,98072.06
2023-04-02T09:41:30.468Z,98062.94
2023-04-02T09:42:36.350Z,98066.91
2023-04-02T09:43:39.410Z,98058.59
2023-04-02T09:44:41.346Z,98067.81
2023-04-02T09:45:45.431Z,98068.50
2023-04-02T09:47:03.701Z,98061.50
2023-04-02T09:48:24.284Z,98059.91
2023-04-02T09:49:28.725Z,98055.69
2023-04-02T09:50:32.999Z,98052.19
2023-04-02T09:51:36.708Z,98051.78
2023-04-02T09:52:38.473Z,98055.31
2023-04-02T09:53:46.272Z,98052.25
2023-04-02T09:55:16.911Z,98055.59
2023-04-02T09:56:23.991Z,98054.88
2023-04-02T09:57:28.137Z,98051.69
2023-04-02T09:58:30.042Z,98054.44
2023-04-02T09:59:31.747Z,98043.84
2023-04-02T10:00:33.520Z,98048.00
2023-04-02T10:01:41.452Z,98046.63
2023-04-02T10:02:44.738Z,98032.47
2023-04-02T10:03:46.699Z,98041.56
2023-04-02T10:04:49.777Z,98039.75
2023-04-02T10:06:10.701Z,98043.34
2023-04-02T10:07:39.341Z,98043.50
2023-04-02T10:08:45.660Z,98039.22
2023-04-02T10:09:57.899Z,98039.31
2023-04-02T10:11:08.089Z,98037.41
2023-04-02T10:12:14.235Z,98024.97
2023-04-02T10:13:22.157Z,98036.03
2023-04-02T10:14:40.884Z,98040.19
2023-04-02T10:15:57.725Z,98030.69
2023-04-02T10:17:15.969Z,98025.47
2023-04-02T10:18:46.833Z,98029.31
2023-04-02T10:19:55.515Z,98036.81
2023-04-02T10:21:00.542Z,98029.91
2023-04-02T10:22:06.907Z,98023.13
2023-04-02T10:23:18.611Z,98023.72
2023-04-02T10:24:20.432Z,98032.50
2023-04-02T10:25:27.190Z,98024.31
2023-04-02T10:26:37.739Z,98018.75
2023-04-02T10:27:51.312Z,98005.44
2023-04-02T10:29:04.423Z,98017.97
2023-04-02T10:30:19.285Z,98027.91
2023-04-02T10:31:33.614Z,98018.69
2023-04-02T10:32:38.448Z,98021.03
2023-04-02T10:33:43.768Z,98007.72
2023-04-02T10:35:01.903Z,98014.63
2023-04-02T10:36:30.473Z,98011.69
2023-04-02T10:37:44.076Z,98012.31
2023-04-02T10:38:55.188Z,98010.34
2023-04-02T10:40:14.397Z,98009.75
2023-04-02T10:41:18.931Z,98015.03
2023-04-02T10:42:23.382Z,98007.56
2023-04-02T10:43:31.362Z,98010.53
2023-04-02T10:44:51.433Z,98013.00
2023-04-02T10:46:25.083Z,98015.72
2023-04-02T10:47:42.262Z,98007.28
2023-04-02T10:48:59.974Z,98004.72
2023-04-02T10:50:20.545Z,98005.53
2023-04-02T10:51:46.987Z,98001.56
2023-04-02T10:53:03.760Z,97995.31
2023-04-02T10:54:43.333Z,98000.41
2023-04-02T10:55:52.655Z,97996.94
2023-04-02T10:56:57.563Z,97997.50
2023-04-02T10:58:07.966Z,97995.03
2023-04-02T10:59:27.228Z,97993.63
2023-04-02T11:00:35.084Z,97990.38
2023-04-02T11:01:41.443Z,97993.03
2023-04-02T11:02:55.644Z,97990.34
2023-04-02T11:04:03.299Z,97986.34
2023-04-02T11:05:46.579Z,97985.78
2023-04-02T11:07:13.323Z,97987.72
2023-04-02T11:08:41.720Z,97983.50
2023-04-02T11:09:47.280Z,97988.44
2023-04-02T11:11:04.956Z,97982.75
2023-04-02T11:12:08.734Z,97983.25
2023-04-02T11:13:35.793Z,97978.44
2023-04-02T11:14:37.577Z,97974.78
2023-04-02T11:15:39.819Z,97979.91
2023-04-02T11:16:44.458Z,97988.78
2023-04-02T11:17:47.890Z,97978.88
2023-04-02T11:19:29.975Z,97980.44
2023-04-02T11:20:57.746Z,97967.28
2023-04-02T11:22:17.115Z,97977.03
2023-04-02T11:23:21.020Z,97980.72
2023-04-02T11:24:32.720Z,97973.88
2023-04-02T11:25:34.766Z,97969.84
2023-04-02T11:26:41.486Z,97972.09
2023-04-02T11:27:43.226Z,97973.66
2023-04-02T11:28:45.146Z,97975.25
2023-04-02T11:29:54.806Z,97968.66
2023-04-02T11:30:57.822Z,97966.00
2023-04-02T11:32:24.477Z,97971.38
2023-04-02T11:33:44.774Z,97968.47
2023-04-02T11:34:56.354Z,97966.06
2023-04-02T11:36:02.337Z,97965.84
2023-04-02T11:37:09.735Z,97962.03
2023-04-02T11:38:11.386Z,97962.16
2023-04-02T11:39:17.303Z,97955.44
2023-04-02T11:40:19.393Z,97949.31
2023-04-02T11:42:03.468Z,97952.03
2023-04-02T11:43:34.578Z,97960.97
2023-04-02T11:44:36.382Z,97955.03
2023-04-02T11:45:52.775Z,97948.72
2023-04-02T11:47:19.115Z,97955.88
2023-04-02T11:48:21.050Z,97953.78
2023-04-02T11:49:38.329Z,97938.13
2023-04-02T11:50:46.616Z,97917.69
2023-04-02T11:51:56.366Z,97944.41
2023-04-02T11:53:11.048Z,97950.91
2023-04-02T11:54:26.406Z,97947.38
2023-04-02T11:55:31.740Z,97935.00
2023-04-02T11:56:49.702Z,97939.69
2023-04-02T11:58:37.018Z,97946.75
2023-04-02T12:00:31.598Z,97949.84
2023-04-02T12:01:45.357Z,97949.22
2023-04-02T12:03:14.986Z,97946.72
2023-04-02T12:04:28.654Z,97945.00
2023-04-02T12:05:39.471Z,97935.22
2023-04-02T12:06:47.376Z,97947.22
2023-04-02T12:08:13.869Z,97936.56
2023-04-02T12:09:31.116Z,97940.22
2023-04-02T12:10:51.389Z,97942.13
2023-04-02T12:11:56.743Z,97944.56
2023-04-02T12:13:01.290Z,97926.47
2023-04-02T12:14:28.010Z,97934.28
2023-04-02T12:15:45.431Z,97934.22
2023-04-02T12:16:48.107Z,97937.84
2023-04-02T12:17:50.056Z,97941.16
2023-04-02T12:18:54.635Z,97934.00
2023-04-02T12:20:24.016Z,97926.06
2023-04-02T12:21:28.341Z,97932.22
2023-04-02T12:22:32.845Z,97934.56
2023-04-02T12:23:37.167Z,97936.06
2023-04-02T12:24:40.729Z,97922.13
2023-04-02T12:25:46.532Z,97924.06
2023-04-02T12:26:48.641Z,97933.44
2023-04-02T12:28:14.548Z,97932.22
2023-04-02T12:29:23.290Z,97934.94
2023-04-02T12:30:25.070Z,97931.44
2023-04-02T12:31:27.299Z,97927.81
2023-04-02T12:32:30.841Z,97930.72
2023-04-02T12:33:37.601Z,97926.91
2023-04-02T12:34:46.557Z,97936.06
2023-04-02T12:35:53.376Z,97932.75
2023-04-02T12:36:59.787Z,97926.22
2023-04-02T12:38:01.637Z,97932.44
2023-04-02T12:39:03.564Z,97928.72
2023-04-02T12:40:17.376Z,97928.72
2023-04-02T12:41:24.164Z,97930.72
2023-04-02T12:42:37.526Z,97923.16
2023-04-02T12:43:40.216Z,97924.31
2023-04-02T12:44:49.225Z,97930.41
2023-04-02T12:45:57.773Z,97921.00
2023-04-02T12:46:59.753Z,97927.00
2023-04-02T12:48:05.209Z,97932.66
2023-04-02T12:49:12.711Z,97929.59
2023-04-02T12:50:16.105Z,97915.94
2023-04-02T12:51:17.956Z,97916.38
2023-04-02T12:52:22.716Z,97913.56
2023-04-02T12:53:29.588Z,97923.47
2023-04-02T12:54:37.102Z,97918.31
2023-04-02T12:55:38.854Z,97920.31
2023-04-02T12:56:40.548Z,97920.66
2023-04-02T12:57:42.596Z,97917.72
2023-04-02T12:58:57.178Z,97920.00
2023-04-02T13:00:01.719Z,97903.97
2023-04-02T13:01:34.033Z,97921.00
2023-04-02T13:02:47.384Z,97920.34
2023-04-02T13:04:12.453Z,97919.03
2023-04-02T13:05:46.637Z,97923.00
2023-04-02T13:06:57.390Z,97922.69
2023-04-02T13:07:59.243Z,97924.00
2023-04-02T13:09:03.937Z,97925.25
2023-04-02T13:10:23.635Z,97920.22
2023-04-02T13:11:41.737Z,97916.06
2023-04-02T13:12:46.253Z,97927.22
2023-04-02T13:13:48.823Z,97916.75
2023-04-02T13:14:56.608Z,97924.50
2023-04-02T13:16:07.848Z,97918.50
2023-04-02T13:17:37.630Z,97910.94
2023-04-02T13:18:39.430Z,97912.44
2023-04-02T13:19:41.143Z,97911.19
2023-04-02T13:20:54.374Z,97910.53
2023-04-02T13:21:57.311Z,97916.28
2023-04-02T13:23:00.962Z,97910.97
2023-04-02T13:24:02.664Z,97905.28
2023-04-02T13:25:04.613Z,97903.66
2023-04-02T13:26:29.048Z,97911.47
2023-04-02T13:27:30.854Z,97910.09
2023-04-02T13:28:32.650Z,97910.84
2023-04-02T13:29:36.808Z,97911.25
2023-04-02T13:30:38.606Z,97907.44
2023-04-02T13:31:40.544Z,97905.19
2023-04-02T13:32:42.604Z,97908.00
2023-04-02T13:33:44.380Z,97908.22
2023-04-02T13:34:46.641Z,97913.75
2023-04-02T13:35:48.396Z,97905.97
2023-04-02T13:36:50.474Z,97896.25
2023-04-02T13:37:52.208Z,97899.19
2023-04-02T13:38:53.885Z,97893.00
2023-04-02T13:39:55.574Z,97900.22
2023-04-02T13:40:57.766Z,97899.66
2023-04-02T13:42:02.545Z,97888.03